Dayton, OR (97114)

12:23 AM PST on February 27, 2015 (GMT -0800)
Unionvale | Change Station
CLOSE
Current Station
Personal Weather Station
Location: Dayton, OR
Elevation: 174 ft
Nearby Weather Stations

Elev 174 ft 45.14 °N, 123.06 °W | Updated 23 seconds ago

Overcast
Overcast
48.4 °F
Feels Like 46 °F
N
5.8
Wind Variable Wind from SSE
Gusts 5.8 mph

Today
High -- | Low -- °F
--% Chance of Precip.
Yesterday
High -- | Low -- °F
Precip. -- in
6:53 AM 5:56 PM
Waxing Gibbous, 66% visible
Pressure 29.83 in
Visibility 10.0 miles
Clouds Overcast 1300 ft
Windchill 46 °F
Dew Point 48 °F
Humidity 99%
Rainfall 0.00 in
Snow Depth Not available.
UV 0 out of 12
Pollen .60 out of 12
Air Quality Not available.
Flu Activity Not available.
METAR KMMV 270753Z AUTO 18006KT 10SM OVC013 10/08 A2983 RMK AO2 SLP101 T01000083 401220083

More Conditions Fewer Conditions

Pressure 29.83 in
Visibility 10.0 miles
Clouds Overcast 1300 ft
Windchill 46 °F
Dew Point 48 °F
Humidity 99%
Rainfall 0.00 in
Snow Depth Not available.
UV 0 out of 12
Pollen .60 out of 12
Air Quality Not available.
Flu Activity Not available.
METAR KMMV 270753Z AUTO 18006KT 10SM OVC013 10/08 A2983 RMK AO2 SLP101 T01000083 401220083

More Conditions Fewer Conditions

10-Day Weather Forecast

Almanac

Astronomy

Feb. 27, 2015 Rise Set
Actual Time
Civil Twilight
Nautical Twilight
Astronomical Twilight
Moon
Length of Visible Light
Length of Day
Tomorrow will be .
, % of the Moon is Illuminated

Today's Extremes

State Highs State Lows

Community

WunderPhotos

Upload Photos

1,800,649 photos uploaded!

WunderBlogs® & News

Nearby

Air Quality

  Air Quality AQ Index Pollutant
Not available.

Snow Depth

Station Depth Elevation

Earthquake Activity

City Distance Mag. Time & Date
Minimum magnitude displayed is 2.5.

Coastal Water Temperatures

Place Temperature

Nearby Weather Stations